Time;durP1;ratioP1;P1;durP2;ratioP2;P2;SDS_P1;SDS_P2;PMS_P1;PMS_P2;Temp;Humidity;BMP_temperature;BMP_pressure;BME280_temperature;BME280_humidity;BME280_pressure;Samples;Min_cycle;Max_cycle;Signal;HPM_P1;HPM_P2
2022/07/27 00:02:05;;;;;;;;;;;22.20;74.50;;;;;;5031541;28;1468;-68
2022/07/27 00:04:30;;;;;;;;;;;22.20;74.50;;;;;;5031142;28;1084;-68
2022/07/27 00:06:55;;;;;;;;;;;22.20;74.50;;;;;;5032583;28;1902;-67
2022/07/27 00:09:21;;;;;;;;;;;22.10;74.40;;;;;;5032789;28;1178;-68
2022/07/27 00:11:46;;;;;;;;;;;22.20;74.50;;;;;;5031513;28;1360;-68
2022/07/27 00:14:12;;;;;;;;;;;22.20;74.50;;;;;;5025798;28;1390;-68
2022/07/27 00:16:37;;;;;;;;;;;22.20;74.50;;;;;;5030784;28;1295;-68
2022/07/27 00:19:03;;;;;;;;;;;22.20;74.60;;;;;;5031235;28;1331;-66
2022/07/27 00:21:28;;;;;;;;;;;22.20;74.50;;;;;;5012833;28;1362;-66
2022/07/27 00:23:53;;;;;;;;;;;22.20;74.50;;;;;;5012868;28;887;-67
2022/07/27 00:26:19;;;;;;;;;;;22.20;74.50;;;;;;5017980;28;1962;-67
2022/07/27 00:28:44;;;;;;;;;;;22.20;74.50;;;;;;5032763;28;1062;-66
2022/07/27 00:31:10;;;;;;;;;;;22.20;74.50;;;;;;5026466;28;1073;-67
2022/07/27 00:33:35;;;;;;;;;;;22.20;74.50;;;;;;5011526;28;1304;-66
2022/07/27 00:36:01;;;;;;;;;;;22.20;74.50;;;;;;5016617;28;1701;-67
2022/07/27 00:38:27;;;;;;;;;;;22.20;74.50;;;;;;5031560;28;1348;-66
2022/07/27 00:40:52;;;;;;;;;;;22.20;74.50;;;;;;5014664;28;1181;-67
2022/07/27 00:43:18;;;;;;;;;;;22.20;74.50;;;;;;5024297;28;879;-66
2022/07/27 00:45:43;;;;;;;;;;;22.10;74.50;;;;;;5032543;28;1955;-66
2022/07/27 00:48:09;;;;;;;;;;;22.20;74.50;;;;;;5031783;28;1201;-66
2022/07/27 00:50:34;;;;;;;;;;;22.20;74.50;;;;;;5017751;28;823;-67
2022/07/27 00:53:00;;;;;;;;;;;22.20;74.50;;;;;;5033104;28;1468;-66
2022/07/27 00:55:26;;;;;;;;;;;22.20;74.50;;;;;;5034957;28;915;-67
2022/07/27 00:57:51;;;;;;;;;;;22.20;74.50;;;;;;5035543;28;1368;-67
2022/07/27 01:00:17;;;;;;;;;;;22.20;74.50;;;;;;5019537;28;1334;-67
2022/07/27 01:02:42;;;;;;;;;;;22.20;74.50;;;;;;5016240;28;1399;-66
2022/07/27 01:05:08;;;;;;;;;;;22.10;74.50;;;;;;5016100;28;1691;-67
2022/07/27 01:07:33;;;;;;;;;;;22.20;74.50;;;;;;5014837;28;1899;-67
2022/07/27 01:09:59;;;;;;;;;;;22.20;74.50;;;;;;5032575;28;1425;-67
2022/07/27 01:12:28;;;;;;;;;;;22.20;74.50;;;;;;5034847;28;1633;-67
2022/07/27 01:14:54;;;;;;;;;;;22.10;74.50;;;;;;5023716;28;1426;-66
2022/07/27 01:17:19;;;;;;;;;;;22.20;74.50;;;;;;5015986;28;1408;-68
2022/07/27 01:19:45;;;;;;;;;;;22.20;74.50;;;;;;5019981;28;1297;-67
2022/07/27 01:22:10;;;;;;;;;;;22.10;74.50;;;;;;5016371;28;1341;-68
2022/07/27 01:24:36;;;;;;;;;;;22.10;74.50;;;;;;5015693;28;1707;-67
2022/07/27 01:27:02;;;;;;;;;;;22.20;74.60;;;;;;5007510;28;1910;-67
2022/07/27 01:29:28;;;;;;;;;;;22.20;74.60;;;;;;5017064;28;1730;-66
2022/07/27 01:31:53;;;;;;;;;;;22.20;74.50;;;;;;5014591;28;1687;-67
2022/07/27 01:34:18;;;;;;;;;;;22.20;74.50;;;;;;5014314;28;1762;-68
2022/07/27 01:36:44;;;;;;;;;;;22.20;74.50;;;;;;5014381;28;1661;-68
2022/07/27 01:39:13;;;;;;;;;;;22.20;74.60;;;;;;5015756;28;1402;-67
2022/07/27 01:41:38;;;;;;;;;;;22.10;74.50;;;;;;5026803;28;926;-68
2022/07/27 01:44:04;;;;;;;;;;;22.20;74.60;;;;;;5035042;28;1429;-68
2022/07/27 01:46:29;;;;;;;;;;;22.20;74.50;;;;;;5033840;28;1902;-67
2022/07/27 01:48:55;;;;;;;;;;;22.20;74.50;;;;;;5021896;28;1414;-68
2022/07/27 01:51:20;;;;;;;;;;;22.20;74.60;;;;;;5034102;28;1411;-67
2022/07/27 01:53:46;;;;;;;;;;;22.20;74.50;;;;;;5031165;28;1222;-68
2022/07/27 01:56:11;;;;;;;;;;;22.10;74.50;;;;;;5015281;28;1595;-67
2022/07/27 01:58:37;;;;;;;;;;;22.20;74.50;;;;;;5028780;28;1269;-65
2022/07/27 02:01:03;;;;;;;;;;;22.20;74.50;;;;;;5015926;28;2157;-67
2022/07/27 02:03:29;;;;;;;;;;;22.20;74.50;;;;;;5033157;28;1712;-67
2022/07/27 02:05:54;;;;;;;;;;;22.20;74.50;;;;;;5032907;28;1965;-67
2022/07/27 02:08:19;;;;;;;;;;;22.20;74.50;;;;;;5031042;23;2053;-74
2022/07/27 02:13:29;;;;;;;;;;;22.20;74.50;;;;;;5007312;28;1529;-73
2022/07/27 02:15:55;;;;;;;;;;;22.20;74.50;;;;;;5012803;28;2392;-74
2022/07/27 02:18:21;;;;;;;;;;;22.20;74.50;;;;;;4996525;28;1773;-74
2022/07/27 02:20:52;;;;;;;;;;;22.20;74.60;;;;;;4974491;28;2439;-73
2022/07/27 02:23:19;;;;;;;;;;;22.20;74.50;;;;;;4952028;28;2990;-75
2022/07/27 02:25:44;;;;;;;;;;;22.20;74.60;;;;;;4971307;28;1918;-72
2022/07/27 02:28:09;;;;;;;;;;;22.10;74.50;;;;;;4992596;28;1528;-72
2022/07/27 02:30:35;;;;;;;;;;;22.20;74.50;;;;;;4993108;28;1356;-72
2022/07/27 02:33:00;;;;;;;;;;;22.20;74.60;;;;;;4994252;28;1285;-73
2022/07/27 02:35:26;;;;;;;;;;;22.20;74.50;;;;;;4956808;28;1194;-73
2022/07/27 02:37:51;;;;;;;;;;;22.20;74.60;;;;;;4992984;28;1209;-73
2022/07/27 02:40:17;;;;;;;;;;;22.20;74.60;;;;;;4993774;28;1285;-73
2022/07/27 02:42:43;;;;;;;;;;;22.20;74.50;;;;;;4980797;28;1053;-73
2022/07/27 02:45:08;;;;;;;;;;;22.20;74.60;;;;;;4975740;28;974;-74
2022/07/27 02:47:34;;;;;;;;;;;22.20;74.60;;;;;;4993181;28;1903;-74
2022/07/27 02:50:02;;;;;;;;;;;22.20;74.50;;;;;;4992841;28;1858;-74
2022/07/27 02:52:27;;;;;;;;;;;22.20;74.50;;;;;;4960351;28;1271;-74
2022/07/27 02:54:53;;;;;;;;;;;22.20;74.60;;;;;;4980997;28;1383;-74
2022/07/27 02:57:18;;;;;;;;;;;22.20;74.50;;;;;;4994331;28;1487;-74
2022/07/27 02:59:44;;;;;;;;;;;22.10;74.50;;;;;;4976778;28;1061;-74
2022/07/27 03:02:09;;;;;;;;;;;22.20;74.50;;;;;;4976589;28;1253;-74
2022/07/27 03:04:35;;;;;;;;;;;22.20;74.50;;;;;;4993622;28;1362;-74
2022/07/27 03:07:00;;;;;;;;;;;22.20;74.50;;;;;;4976291;28;1958;-74
2022/07/27 03:09:26;;;;;;;;;;;22.20;74.50;;;;;;4981365;28;1398;-74
2022/07/27 03:11:51;;;;;;;;;;;22.20;74.50;;;;;;4993327;28;1440;-74
2022/07/27 03:14:17;;;;;;;;;;;22.20;74.50;;;;;;4975752;28;2085;-74
2022/07/27 03:16:42;;;;;;;;;;;22.20;74.50;;;;;;4993416;28;1248;-74
2022/07/27 03:19:08;;;;;;;;;;;22.20;74.50;;;;;;4976294;28;1273;-73
2022/07/27 03:21:33;;;;;;;;;;;22.20;74.50;;;;;;4993611;28;1361;-74
2022/07/27 03:23:58;;;;;;;;;;;22.20;74.50;;;;;;4975870;28;1121;-74
2022/07/27 03:26:24;;;;;;;;;;;22.20;74.50;;;;;;4975880;28;1964;-74
2022/07/27 03:28:49;;;;;;;;;;;22.10;74.50;;;;;;4963835;28;1187;-73
2022/07/27 03:31:15;;;;;;;;;;;22.20;74.50;;;;;;4993264;28;1314;-73
2022/07/27 03:33:40;;;;;;;;;;;22.20;74.50;;;;;;4993327;28;1093;-74
2022/07/27 03:36:06;;;;;;;;;;;22.20;74.50;;;;;;4975620;28;1471;-74
2022/07/27 03:38:31;;;;;;;;;;;22.20;74.50;;;;;;4993567;28;1113;-74
2022/07/27 03:40:57;;;;;;;;;;;22.20;74.50;;;;;;4993357;28;1128;-73
2022/07/27 03:43:22;;;;;;;;;;;22.10;74.50;;;;;;4992944;28;1243;-74
2022/07/27 03:45:48;;;;;;;;;;;22.20;74.50;;;;;;4988192;28;1894;-74
2022/07/27 03:48:13;;;;;;;;;;;22.20;74.50;;;;;;4985439;28;1263;-74
2022/07/27 03:50:38;;;;;;;;;;;22.10;74.40;;;;;;4959905;28;1170;-74
2022/07/27 03:53:04;;;;;;;;;;;22.20;74.50;;;;;;4993659;28;1116;-74
2022/07/27 03:55:29;;;;;;;;;;;22.20;74.50;;;;;;4975365;28;1117;-74
2022/07/27 03:57:55;;;;;;;;;;;22.20;74.50;;;;;;4991804;28;1396;-74
2022/07/27 04:00:20;;;;;;;;;;;22.20;74.50;;;;;;4993170;28;1388;-74
2022/07/27 04:02:46;;;;;;;;;;;22.20;74.50;;;;;;4993356;28;1076;-74
2022/07/27 04:05:11;;;;;;;;;;;22.20;74.50;;;;;;4975965;28;1352;-74
2022/07/27 04:07:37;;;;;;;;;;;22.10;74.40;;;;;;4976251;28;1907;-74
2022/07/27 04:10:03;;;;;;;;;;;22.20;74.50;;;;;;4959481;28;2013;-74
2022/07/27 04:12:28;;;;;;;;;;;22.20;74.50;;;;;;4975563;28;1125;-74
2022/07/27 04:14:54;;;;;;;;;;;22.20;74.50;;;;;;4974966;28;2117;-74
2022/07/27 04:17:19;;;;;;;;;;;22.10;74.50;;;;;;4993241;28;1363;-74
2022/07/27 04:19:45;;;;;;;;;;;22.20;74.50;;;;;;4992923;28;1137;-74
2022/07/27 04:22:10;;;;;;;;;;;22.20;74.50;;;;;;4993040;28;1093;-74
2022/07/27 04:24:36;;;;;;;;;;;22.10;74.40;;;;;;4975207;28;1222;-74
2022/07/27 04:27:01;;;;;;;;;;;22.10;74.40;;;;;;4992752;28;1967;-74
2022/07/27 04:29:26;;;;;;;;;;;22.20;74.50;;;;;;4979400;28;1422;-74
2022/07/27 04:31:52;;;;;;;;;;;22.20;74.50;;;;;;4963322;28;1318;-74
2022/07/27 04:34:17;;;;;;;;;;;22.20;74.50;;;;;;4979058;28;1396;-74
2022/07/27 04:36:43;;;;;;;;;;;22.10;74.40;;;;;;4979310;28;1379;-74
2022/07/27 04:39:09;;;;;;;;;;;22.20;74.50;;;;;;4989749;28;2313;-73
2022/07/27 04:41:34;;;;;;;;;;;22.10;74.40;;;;;;4966600;28;1214;-73
2022/07/27 04:43:59;;;;;;;;;;;22.10;74.50;;;;;;4991009;28;2035;-73
2022/07/27 04:46:25;;;;;;;;;;;22.20;74.50;;;;;;4974841;28;1953;-73
2022/07/27 04:48:51;;;;;;;;;;;22.20;74.50;;;;;;4994155;28;1341;-73
2022/07/27 04:51:16;;;;;;;;;;;22.10;74.40;;;;;;4995536;28;1101;-73
2022/07/27 04:53:42;;;;;;;;;;;22.10;74.40;;;;;;4978078;28;1508;-73
2022/07/27 04:56:08;;;;;;;;;;;22.20;74.50;;;;;;4977499;28;1282;-73
2022/07/27 04:58:33;;;;;;;;;;;22.20;74.50;;;;;;4994915;28;1353;-72
2022/07/27 05:00:59;;;;;;;;;;;22.20;74.50;;;;;;4960801;28;1676;-73
2022/07/27 05:03:24;;;;;;;;;;;22.20;74.50;;;;;;4993977;28;1318;-73
2022/07/27 05:05:49;;;;;;;;;;;22.20;74.50;;;;;;4993863;28;1956;-73
2022/07/27 05:08:15;;;;;;;;;;;22.20;74.50;;;;;;4991333;28;1277;-72
2022/07/27 05:10:40;;;;;;;;;;;22.20;74.60;;;;;;4964035;28;1514;-73
2022/07/27 05:13:06;;;;;;;;;;;22.20;75.30;;;;;;4990865;28;1272;-74
2022/07/27 05:15:31;;;;;;;;;;;22.10;74.50;;;;;;4993456;28;1648;-73
2022/07/27 05:17:57;;;;;;;;;;;22.20;74.50;;;;;;4994466;28;1369;-73
2022/07/27 05:20:22;;;;;;;;;;;22.20;74.50;;;;;;4977262;28;1137;-73
2022/07/27 05:22:47;;;;;;;;;;;22.20;74.50;;;;;;4994148;28;1100;-73
2022/07/27 05:25:13;;;;;;;;;;;22.20;74.60;;;;;;4976033;28;1331;-74
2022/07/27 05:27:38;;;;;;;;;;;22.10;74.50;;;;;;4990719;28;2130;-73
2022/07/27 05:30:04;;;;;;;;;;;22.20;74.50;;;;;;4995203;28;1202;-74
2022/07/27 05:32:30;;;;;;;;;;;22.20;74.50;;;;;;4995256;28;1357;-74
2022/07/27 05:34:55;;;;;;;;;;;22.20;74.60;;;;;;4994852;28;1085;-73
2022/07/27 05:37:20;;;;;;;;;;;22.20;74.50;;;;;;4994737;28;1261;-73
2022/07/27 05:39:46;;;;;;;;;;;22.20;74.50;;;;;;4994639;28;1069;-73
2022/07/27 05:42:11;;;;;;;;;;;22.20;74.60;;;;;;4995281;28;1116;-74
2022/07/27 05:44:37;;;;;;;;;;;22.20;74.50;;;;;;4977360;28;1074;-73
2022/07/27 05:47:02;;;;;;;;;;;22.10;74.50;;;;;;4994498;28;1902;-73
2022/07/27 05:49:28;;;;;;;;;;;22.20;74.60;;;;;;4976926;28;1643;-73
2022/07/27 05:51:53;;;;;;;;;;;22.20;74.50;;;;;;4994898;28;1056;-74
2022/07/27 05:54:19;;;;;;;;;;;22.20;74.50;;;;;;4977395;28;1517;-74
2022/07/27 05:56:44;;;;;;;;;;;22.20;74.50;;;;;;4977092;28;1330;-73
2022/07/27 05:59:10;;;;;;;;;;;22.20;74.60;;;;;;4996510;28;1276;-73
2022/07/27 06:01:35;;;;;;;;;;;22.20;74.60;;;;;;4992757;28;2819;-74
2022/07/27 06:04:01;;;;;;;;;;;22.20;74.60;;;;;;4993320;28;1139;-74
2022/07/27 06:09:10;;;;;;;;;;;22.10;74.50;;;;;;4965803;28;1772;-74
2022/07/27 06:11:36;;;;;;;;;;;22.20;74.60;;;;;;4984811;28;1728;-74
2022/07/27 06:14:01;;;;;;;;;;;22.10;74.50;;;;;;4971707;28;1465;-74
2022/07/27 06:16:27;;;;;;;;;;;22.20;74.60;;;;;;4976405;28;1349;-74
2022/07/27 06:18:52;;;;;;;;;;;22.20;74.60;;;;;;4976627;28;1319;-74
2022/07/27 06:21:18;;;;;;;;;;;22.20;74.50;;;;;;4976721;28;1294;-73
2022/07/27 06:23:47;;;;;;;;;;;22.20;74.50;;;;;;4993814;28;1270;-74
2022/07/27 06:26:12;;;;;;;;;;;22.10;74.50;;;;;;4993537;28;1906;-74
2022/07/27 06:28:38;;;;;;;;;;;22.10;74.50;;;;;;4955238;28;1278;-74
2022/07/27 06:31:03;;;;;;;;;;;22.20;74.50;;;;;;4974102;28;1413;-74
2022/07/27 06:33:29;;;;;;;;;;;22.10;74.50;;;;;;4993958;28;1277;-73
2022/07/27 06:35:55;;;;;;;;;;;22.10;74.50;;;;;;4974113;28;1372;-74
2022/07/27 06:38:21;;;;;;;;;;;22.20;74.50;;;;;;4993239;28;1426;-73
2022/07/27 06:40:51;;;;;;;;;;;22.20;74.50;;;;;;4960100;28;1315;-73
2022/07/27 06:43:19;;;;;;;;;;;22.10;74.50;;;;;;4993865;28;1046;-73
2022/07/27 06:45:45;;;;;;;;;;;22.20;74.50;;;;;;4975496;28;1899;-73
2022/07/27 06:48:10;;;;;;;;;;;22.10;74.50;;;;;;4982084;28;1703;-73
2022/07/27 06:50:36;;;;;;;;;;;22.10;74.50;;;;;;4969998;28;1869;-77
2022/07/27 06:53:04;;;;;;;;;;;22.10;74.50;;;;;;4966086;28;1718;-75
2022/07/27 06:55:30;;;;;;;;;;;22.10;72.80;;;;;;4990545;28;1365;-74
2022/07/27 06:57:55;;;;;;;;;;;22.10;70.70;;;;;;4992351;28;1209;-75
2022/07/27 07:00:21;;;;;;;;;;;22.10;71.20;;;;;;4992500;28;1242;-75
2022/07/27 07:02:50;;;;;;;;;;;22.10;70.80;;;;;;4974076;28;1559;-75
2022/07/27 07:05:16;;;;;;;;;;;22.10;70.00;;;;;;4982908;28;1373;-74
2022/07/27 07:07:41;;;;;;;;;;;22.10;69.60;;;;;;4992598;28;1952;-75
2022/07/27 07:10:07;;;;;;;;;;;22.10;70.00;;;;;;4974818;28;1456;-75
2022/07/27 07:12:32;;;;;;;;;;;22.10;70.00;;;;;;4959014;28;1280;-75
2022/07/27 07:14:57;;;;;;;;;;;22.10;68.30;;;;;;4992096;28;1365;-75
2022/07/27 07:17:23;;;;;;;;;;;22.10;67.80;;;;;;4992015;28;1287;-75
2022/07/27 07:19:48;;;;;;;;;;;22.10;67.70;;;;;;4974546;28;1464;-75
2022/07/27 07:22:14;;;;;;;;;;;22.10;66.80;;;;;;4992073;28;1370;-74
2022/07/27 07:24:39;;;;;;;;;;;22.00;66.20;;;;;;4973999;28;1377;-74
2022/07/27 07:27:05;;;;;;;;;;;22.00;64.80;;;;;;4991716;28;1902;-74
2022/07/27 07:29:30;;;;;;;;;;;22.00;66.30;;;;;;4958282;28;1473;-74
2022/07/27 07:31:56;;;;;;;;;;;22.00;66.30;;;;;;4958366;28;1528;-74
2022/07/27 07:34:21;;;;;;;;;;;22.00;66.70;;;;;;4978062;28;1172;-74
2022/07/27 07:36:47;;;;;;;;;;;22.00;65.60;;;;;;4973880;28;1300;-74
2022/07/27 07:39:12;;;;;;;;;;;22.00;65.70;;;;;;4958482;28;1397;-74
2022/07/27 07:41:38;;;;;;;;;;;22.00;65.70;;;;;;4991710;28;1367;-73
2022/07/27 07:44:03;;;;;;;;;;;22.00;66.30;;;;;;4991343;28;1184;-74
2022/07/27 07:46:29;;;;;;;;;;;22.00;65.70;;;;;;4973990;28;1968;-74
2022/07/27 07:48:55;;;;;;;;;;;22.00;65.30;;;;;;4992350;28;1321;-73
2022/07/27 07:51:20;;;;;;;;;;;22.00;64.00;;;;;;4974490;28;1427;-73
2022/07/27 07:53:46;;;;;;;;;;;22.00;64.30;;;;;;4974489;28;1212;-74
2022/07/27 07:56:13;;;;;;;;;;;22.00;63.40;;;;;;4992433;28;1359;-74
2022/07/27 07:58:38;;;;;;;;;;;21.90;62.80;;;;;;4975250;28;1282;-73
2022/07/27 08:01:04;;;;;;;;;;;21.90;63.40;;;;;;4959041;28;1194;-74
2022/07/27 08:03:29;;;;;;;;;;;21.90;63.50;;;;;;4992309;28;1353;-74
2022/07/27 08:05:55;;;;;;;;;;;21.90;63.20;;;;;;4974389;28;1952;-74
2022/07/27 08:08:20;;;;;;;;;;;21.90;62.50;;;;;;4971058;28;1562;-74
2022/07/27 08:10:45;;;;;;;;;;;21.90;63.40;;;;;;5039218;23;2111;-68
2022/07/27 08:13:11;;;;;;;;;;;21.90;62.80;;;;;;5032480;28;961;-69
2022/07/27 08:15:36;;;;;;;;;;;21.90;62.60;;;;;;5026430;28;1587;-69
2022/07/27 08:18:03;;;;;;;;;;;21.90;62.10;;;;;;5032129;28;1341;-68
2022/07/27 08:20:28;;;;;;;;;;;21.90;61.70;;;;;;4998088;28;1711;-68
2022/07/27 08:22:53;;;;;;;;;;;21.90;62.20;;;;;;5011166;28;1299;-68
2022/07/27 08:25:19;;;;;;;;;;;21.90;62.30;;;;;;5011767;28;1247;-68
2022/07/27 08:27:44;;;;;;;;;;;21.90;62.30;;;;;;5012238;28;1971;-68
2022/07/27 08:30:10;;;;;;;;;;;21.90;61.50;;;;;;5012612;28;1290;-68
2022/07/27 08:32:51;;;;;;;;;;;21.90;62.10;;;;;;5012484;28;1377;-68
2022/07/27 08:35:17;;;;;;;;;;;21.80;60.90;;;;;;5010477;28;1255;-68
2022/07/27 08:37:43;;;;;;;;;;;21.80;59.80;;;;;;5012510;28;1297;-68
2022/07/27 08:40:09;;;;;;;;;;;21.80;60.50;;;;;;5010782;28;1309;-68
2022/07/27 08:42:34;;;;;;;;;;;21.80;60.20;;;;;;5010973;28;1312;-67
2022/07/27 08:44:59;;;;;;;;;;;21.80;60.70;;;;;;5010687;28;1261;-68
2022/07/27 08:47:25;;;;;;;;;;;21.80;60.00;;;;;;5010518;28;1966;-68
2022/07/27 08:49:50;;;;;;;;;;;21.80;59.20;;;;;;5010660;28;1361;-68
2022/07/27 08:52:16;;;;;;;;;;;21.80;58.50;;;;;;4997782;28;1230;-68
2022/07/27 08:54:41;;;;;;;;;;;21.80;59.80;;;;;;4998964;28;1530;-68
2022/07/27 08:57:07;;;;;;;;;;;21.80;59.90;;;;;;5009527;28;1390;-68
2022/07/27 08:59:32;;;;;;;;;;;21.80;59.70;;;;;;5011074;28;1278;-68
2022/07/27 09:01:58;;;;;;;;;;;21.80;59.50;;;;;;5011555;28;1278;-68
2022/07/27 09:04:23;;;;;;;;;;;21.80;59.60;;;;;;5000670;28;1056;-68
2022/07/27 09:06:49;;;;;;;;;;;21.80;59.30;;;;;;5008843;28;1898;-68
2022/07/27 09:09:16;;;;;;;;;;;21.80;59.50;;;;;;5010951;28;1218;-67
2022/07/27 09:11:41;;;;;;;;;;;21.80;59.30;;;;;;5011814;28;956;-68
2022/07/27 09:14:07;;;;;;;;;;;21.80;59.90;;;;;;5012306;28;1624;-68
2022/07/27 09:16:33;;;;;;;;;;;21.80;60.40;;;;;;5030898;28;1226;-69
2022/07/27 09:19:03;;;;;;;;;;;21.70;59.60;;;;;;5013616;28;1330;-68
2022/07/27 09:21:28;;;;;;;;;;;21.70;60.00;;;;;;5014158;28;1390;-68
2022/07/27 09:23:55;;;;;;;;;;;21.70;59.30;;;;;;5013903;28;1249;-69
2022/07/27 09:26:21;;;;;;;;;;;21.70;59.00;;;;;;5014266;28;1906;-69
2022/07/27 09:28:46;;;;;;;;;;;21.70;58.40;;;;;;5014502;28;1255;-69
2022/07/27 09:31:12;;;;;;;;;;;21.70;58.30;;;;;;5014202;28;1307;-69
2022/07/27 09:33:42;;;;;;;;;;;21.70;57.80;;;;;;5015645;28;1100;-68
2022/07/27 09:36:08;;;;;;;;;;;21.70;58.30;;;;;;4997604;28;1179;-69
2022/07/27 09:38:33;;;;;;;;;;;21.70;58.90;;;;;;5003165;28;1262;-68
2022/07/27 09:40:59;;;;;;;;;;;21.70;58.60;;;;;;5014894;28;1161;-69
2022/07/27 09:43:24;;;;;;;;;;;21.70;58.70;;;;;;5015229;28;871;-68
2022/07/27 09:45:50;;;;;;;;;;;21.70;58.20;;;;;;5015311;28;1966;-69
2022/07/27 09:48:16;;;;;;;;;;;21.70;57.80;;;;;;5015106;28;1243;-68
2022/07/27 09:50:43;;;;;;;;;;;21.70;58.90;;;;;;5013476;28;1318;-68
2022/07/27 09:53:12;;;;;;;;;;;21.70;58.80;;;;;;5014994;28;1330;-67
2022/07/27 09:55:38;;;;;;;;;;;21.70;58.20;;;;;;5013374;28;1316;-67
2022/07/27 09:58:03;;;;;;;;;;;21.70;58.50;;;;;;5014803;28;1291;-67
2022/07/27 10:00:29;;;;;;;;;;;21.70;58.60;;;;;;5012877;28;1425;-68
2022/07/27 10:02:55;;;;;;;;;;;21.70;57.60;;;;;;5015022;28;1314;-67
2022/07/27 10:05:21;;;;;;;;;;;21.70;57.90;;;;;;5014316;28;1430;-67
2022/07/27 10:07:47;;;;;;;;;;;21.70;58.20;;;;;;5013944;28;1902;-68
2022/07/27 10:10:13;;;;;;;;;;;21.70;58.10;;;;;;5014207;28;1304;-67
2022/07/27 10:12:38;;;;;;;;;;;21.70;58.20;;;;;;5014496;28;1334;-67
2022/07/27 10:15:04;;;;;;;;;;;21.70;58.20;;;;;;5012451;28;1397;-68
2022/07/27 10:17:30;;;;;;;;;;;21.70;58.60;;;;;;5014960;28;1294;-67
2022/07/27 10:19:55;;;;;;;;;;;21.70;58.30;;;;;;5012580;28;1324;-69
2022/07/27 10:22:39;;;;;;;;;;;21.70;58.40;;;;;;5013200;28;1404;-68
2022/07/27 10:25:05;;;;;;;;;;;21.70;58.20;;;;;;5012750;28;1299;-67
2022/07/27 10:27:31;;;;;;;;;;;21.70;58.60;;;;;;5002288;28;1950;-67
2022/07/27 10:29:56;;;;;;;;;;;21.70;58.50;;;;;;5013975;28;1269;-67
2022/07/27 10:32:25;;;;;;;;;;;21.70;58.60;;;;;;5013428;28;1322;-67
2022/07/27 10:34:50;;;;;;;;;;;21.70;58.20;;;;;;5012800;28;1285;-67
2022/07/27 10:37:25;;;;;;;;;;;21.70;57.60;;;;;;5014361;28;1099;-68
2022/07/27 10:40:33;;;;;;;;;;;21.70;57.40;;;;;;5011131;28;1813;-67
2022/07/27 10:42:37;;;;;;;;;;;21.70;57.40;;;;;;5011873;28;1149;-67
2022/07/27 10:45:04;;;;;;;;;;;21.70;57.50;;;;;;5004666;28;1219;-68
2022/07/27 10:47:31;;;;;;;;;;;21.70;57.60;;;;;;5011638;28;1958;-69
2022/07/27 10:50:15;;;;;;;;;;;21.70;57.90;;;;;;4994145;28;1428;-68
2022/07/27 10:52:41;;;;;;;;;;;21.70;57.40;;;;;;5013431;28;1247;-68
2022/07/27 10:55:07;;;;;;;;;;;21.70;57.40;;;;;;5013807;28;1107;-68
2022/07/27 10:57:34;;;;;;;;;;;21.70;57.40;;;;;;5012284;28;1284;-68
2022/07/27 11:00:06;;;;;;;;;;;21.70;56.90;;;;;;5013637;28;1307;-70
2022/07/27 11:02:38;;;;;;;;;;;21.70;56.40;;;;;;5013718;28;1324;-70
2022/07/27 11:05:04;;;;;;;;;;;21.70;56.70;;;;;;5011760;28;1392;-70
2022/07/27 11:07:29;;;;;;;;;;;21.70;56.70;;;;;;5013695;28;1955;-70
2022/07/27 11:09:55;;;;;;;;;;;21.70;57.40;;;;;;5012492;28;1486;-70
2022/07/27 11:12:20;;;;;;;;;;;21.70;57.40;;;;;;5013265;28;1275;-70
2022/07/27 11:14:49;;;;;;;;;;;21.70;57.20;;;;;;5011887;28;1421;-70
2022/07/27 11:17:15;;;;;;;;;;;21.70;57.70;;;;;;5012620;28;1267;-70
2022/07/27 11:19:40;;;;;;;;;;;21.70;57.40;;;;;;5009523;28;1323;-70
2022/07/27 11:22:06;;;;;;;;;;;21.70;57.40;;;;;;5013146;28;1135;-69
2022/07/27 11:24:32;;;;;;;;;;;21.70;56.80;;;;;;5012827;28;1300;-70
2022/07/27 11:26:57;;;;;;;;;;;21.70;56.70;;;;;;5011379;28;1976;-70
2022/07/27 11:29:22;;;;;;;;;;;21.70;56.80;;;;;;5011916;28;1509;-70
2022/07/27 11:31:50;;;;;;;;;;;21.70;57.40;;;;;;5011807;28;1284;-70
2022/07/27 11:34:16;;;;;;;;;;;21.70;57.40;;;;;;5013021;28;1295;-70
2022/07/27 11:36:44;;;;;;;;;;;21.70;57.30;;;;;;5012992;28;1028;-70
2022/07/27 11:39:11;;;;;;;;;;;21.70;57.40;;;;;;5013094;28;1335;-70
2022/07/27 11:41:36;;;;;;;;;;;21.70;57.50;;;;;;5012572;28;1308;-70
2022/07/27 11:44:06;;;;;;;;;;;21.70;57.50;;;;;;5012964;28;1277;-70
2022/07/27 11:46:32;;;;;;;;;;;21.70;57.20;;;;;;5011614;28;1883;-70
2022/07/27 11:48:59;;;;;;;;;;;21.70;57.00;;;;;;5011271;28;1363;-69
2022/07/27 11:51:24;;;;;;;;;;;21.70;58.00;;;;;;5012896;28;1319;-69
2022/07/27 11:53:57;;;;;;;;;;;21.70;58.20;;;;;;5012346;28;1275;-70
2022/07/27 11:56:23;;;;;;;;;;;21.70;58.20;;;;;;5001713;28;1614;-68
2022/07/27 11:59:18;;;;;;;;;;;21.70;57.70;;;;;;5011731;28;1320;-69
2022/07/27 12:01:45;;;;;;;;;;;21.70;57.80;;;;;;4989359;28;1369;-68
2022/07/27 12:04:12;;;;;;;;;;;21.70;58.30;;;;;;5010219;28;1280;-70
2022/07/27 12:06:38;;;;;;;;;;;21.70;58.30;;;;;;5010391;28;1955;-70
2022/07/27 12:09:04;;;;;;;;;;;21.70;58.50;;;;;;4994071;28;1399;-69
2022/07/27 12:11:43;;;;;;;;;;;21.70;58.20;;;;;;5025328;28;1550;-68
2022/07/27 12:14:12;;;;;;;;;;;21.70;57.70;;;;;;5010262;28;1430;-69
2022/07/27 12:16:37;;;;;;;;;;;21.70;57.10;;;;;;5026963;28;1268;-70
2022/07/27 12:19:03;;;;;;;;;;;21.70;57.20;;;;;;5011556;28;1303;-69
2022/07/27 12:21:28;;;;;;;;;;;21.70;56.80;;;;;;5010411;28;1341;-69
2022/07/27 12:23:53;;;;;;;;;;;21.70;57.00;;;;;;5009644;28;1296;-70
2022/07/27 12:26:19;;;;;;;;;;;21.70;56.80;;;;;;5007698;28;1971;-69
2022/07/27 12:28:45;;;;;;;;;;;21.70;57.00;;;;;;5002749;28;1302;-70
2022/07/27 12:31:16;;;;;;;;;;;21.70;57.30;;;;;;5009829;28;938;-70
2022/07/27 12:33:42;;;;;;;;;;;21.70;57.40;;;;;;5011220;28;1309;-70
2022/07/27 12:36:07;;;;;;;;;;;21.70;57.50;;;;;;4994411;28;1379;-70
2022/07/27 12:38:40;;;;;;;;;;;21.70;57.90;;;;;;5012545;28;1267;-69
2022/07/27 12:41:05;;;;;;;;;;;21.70;57.80;;;;;;5011464;28;1406;-69
2022/07/27 12:43:31;;;;;;;;;;;21.70;57.30;;;;;;5011187;28;1275;-68
2022/07/27 12:45:56;;;;;;;;;;;21.70;57.80;;;;;;5010576;28;1902;-70
2022/07/27 12:48:22;;;;;;;;;;;21.70;57.90;;;;;;5011912;28;1286;-70
2022/07/27 12:50:58;;;;;;;;;;;21.70;57.80;;;;;;5013273;28;1953;-70
2022/07/27 12:53:24;;;;;;;;;;;21.70;57.90;;;;;;5014729;28;1227;-70
2022/07/27 12:55:49;;;;;;;;;;;21.70;58.20;;;;;;4998395;28;1574;-70
2022/07/27 12:58:15;;;;;;;;;;;21.70;58.10;;;;;;5009629;28;1510;-70
2022/07/27 13:00:41;;;;;;;;;;;21.70;57.80;;;;;;5016075;28;1694;-70
2022/07/27 13:03:06;;;;;;;;;;;21.70;57.80;;;;;;5015799;28;1341;-70
2022/07/27 13:05:32;;;;;;;;;;;21.70;57.70;;;;;;5005170;28;1551;-70
2022/07/27 13:07:58;;;;;;;;;;;21.70;56.60;;;;;;5014466;28;1956;-70
2022/07/27 13:10:23;;;;;;;;;;;21.70;57.00;;;;;;5015807;28;1646;-70
2022/07/27 13:12:49;;;;;;;;;;;21.70;56.70;;;;;;5014387;28;1385;-70
2022/07/27 13:15:14;;;;;;;;;;;21.70;57.20;;;;;;5014935;28;1664;-69
2022/07/27 13:17:40;;;;;;;;;;;21.70;57.00;;;;;;5015796;28;1431;-70
2022/07/27 13:20:09;;;;;;;;;;;21.70;57.10;;;;;;5012445;28;1381;-70
2022/07/27 13:22:35;;;;;;;;;;;21.70;56.50;;;;;;5014753;28;1391;-70
2022/07/27 13:25:01;;;;;;;;;;;21.70;56.00;;;;;;5015203;28;1458;-70
2022/07/27 13:27:27;;;;;;;;;;;21.70;55.70;;;;;;5013766;28;1957;-71
2022/07/27 13:29:52;;;;;;;;;;;21.70;55.60;;;;;;5015579;28;1462;-70
2022/07/27 13:32:18;;;;;;;;;;;21.70;55.50;;;;;;5014337;28;1434;-69
2022/07/27 13:34:43;;;;;;;;;;;21.70;56.30;;;;;;5014608;28;1361;-69
2022/07/27 13:37:09;;;;;;;;;;;21.70;56.50;;;;;;5014950;28;1701;-69
2022/07/27 13:39:34;;;;;;;;;;;21.70;56.40;;;;;;5015421;28;1389;-69
2022/07/27 13:42:01;;;;;;;;;;;21.70;56.60;;;;;;5014372;28;1495;-70
2022/07/27 13:44:26;;;;;;;;;;;21.70;56.80;;;;;;5013955;28;1642;-70
2022/07/27 13:46:52;;;;;;;;;;;21.70;57.80;;;;;;5014943;28;1923;-70
2022/07/27 13:49:17;;;;;;;;;;;21.70;57.20;;;;;;5014236;28;1729;-70
2022/07/27 13:51:43;;;;;;;;;;;21.70;56.80;;;;;;5013718;28;1734;-69
2022/07/27 13:54:09;;;;;;;;;;;21.70;56.80;;;;;;5013184;28;1372;-70
2022/07/27 13:56:34;;;;;;;;;;;21.70;56.80;;;;;;5013452;28;1506;-70
2022/07/27 13:59:00;;;;;;;;;;;21.70;57.20;;;;;;5013796;28;1678;-69
2022/07/27 14:01:25;;;;;;;;;;;21.70;57.40;;;;;;5013863;28;1195;-69
2022/07/27 14:03:51;;;;;;;;;;;21.70;56.80;;;;;;5013054;28;1600;-69
2022/07/27 14:06:17;;;;;;;;;;;21.70;56.80;;;;;;5013327;28;1902;-69
2022/07/27 14:08:42;;;;;;;;;;;21.70;56.80;;;;;;5012774;28;1642;-70
2022/07/27 14:11:08;;;;;;;;;;;21.70;57.00;;;;;;5014115;28;1720;-69
2022/07/27 14:13:33;;;;;;;;;;;21.70;56.80;;;;;;5013494;28;1408;-69
2022/07/27 14:16:00;;;;;;;;;;;21.70;56.50;;;;;;5012374;28;1731;-69
2022/07/27 14:18:26;;;;;;;;;;;21.70;56.80;;;;;;5013116;28;1681;-69
2022/07/27 14:20:52;;;;;;;;;;;21.70;56.60;;;;;;5009399;28;1215;-69
2022/07/27 14:23:18;;;;;;;;;;;21.70;56.70;;;;;;5013534;28;1684;-69
2022/07/27 14:25:43;;;;;;;;;;;21.70;56.60;;;;;;5012533;28;1428;-69
2022/07/27 14:28:09;;;;;;;;;;;21.70;56.60;;;;;;5014237;28;1902;-69
2022/07/27 14:30:34;;;;;;;;;;;21.70;56.30;;;;;;5014573;28;1660;-69